createdAt,value
2019-04-03T00:03:43.158Z,19.03
2019-04-03T00:07:48.502Z,18.43
2019-04-03T00:11:53.782Z,18.80
2019-04-03T00:15:59.162Z,22.43
2019-04-03T00:20:07.053Z,19.07
2019-04-03T00:24:12.342Z,19.70
2019-04-03T00:28:17.606Z,18.10
2019-04-03T00:32:23.346Z,19.27
2019-04-03T00:36:28.897Z,19.63
2019-04-03T00:40:34.251Z,17.63
2019-04-03T00:44:39.556Z,17.13
2019-04-03T00:48:44.905Z,18.03
2019-04-03T00:52:49.912Z,18.93
2019-04-03T00:56:56.506Z,18.43
2019-04-03T01:01:01.972Z,18.97
2019-04-03T01:05:07.498Z,16.17
2019-04-03T01:09:12.689Z,16.30
2019-04-03T01:13:18.099Z,17.20
2019-04-03T01:17:23.330Z,18.17
2019-04-03T01:21:28.699Z,18.87
2019-04-03T01:25:33.693Z,18.97
2019-04-03T01:29:38.759Z,19.17
2019-04-03T01:33:46.096Z,19.40
2019-04-03T01:37:50.400Z,18.80
2019-04-03T01:41:55.466Z,18.33
2019-04-03T01:46:01.607Z,16.33
2019-04-03T01:50:07.151Z,16.35
2019-04-03T01:54:12.418Z,16.47
2019-04-03T01:58:17.699Z,16.83
2019-04-03T02:02:23.249Z,17.40
2019-04-03T02:06:28.521Z,17.23
2019-04-03T02:10:33.810Z,17.77
2019-04-03T02:14:39.061Z,18.70
2019-04-03T02:18:44.347Z,18.53
2019-04-03T02:22:50.605Z,18.73
2019-04-03T02:26:55.986Z,18.13
2019-04-03T02:31:01.308Z,19.20
2019-04-03T02:35:08.416Z,20.57
2019-04-03T02:39:14.916Z,15.87
2019-04-03T02:43:21.927Z,17.37
2019-04-03T02:47:32.533Z,18.07
2019-04-03T02:51:36.055Z,17.90
2019-04-03T02:55:41.354Z,17.13
2019-04-03T02:59:46.612Z,18.80
2019-04-03T03:03:51.970Z,18.87
2019-04-03T03:07:57.511Z,20.83
2019-04-03T03:12:03.035Z,19.17
2019-04-03T03:16:09.197Z,20.43
2019-04-03T03:20:15.384Z,20.20
2019-04-03T03:24:21.519Z,19.50
2019-04-03T03:28:27.480Z,19.10
2019-04-03T03:32:35.681Z,18.30
2019-04-03T03:36:40.421Z,15.70
2019-04-03T03:40:48.340Z,16.20
2019-04-03T03:44:54.294Z,16.40
2019-04-03T03:48:59.610Z,14.83
2019-04-03T03:53:10.152Z,15.73
2019-04-03T03:57:12.511Z,15.17
2019-04-03T04:01:18.918Z,15.97
2019-04-03T04:05:24.468Z,15.27
2019-04-03T04:09:30.938Z,15.93
2019-04-03T04:13:36.869Z,15.73
2019-04-03T04:17:42.529Z,15.33
2019-04-03T04:21:49.305Z,14.40
2019-04-03T04:25:54.878Z,16.40
2019-04-03T04:30:00.606Z,15.47
2019-04-03T04:34:06.181Z,14.83
2019-04-03T04:38:11.601Z,15.00
2019-04-03T04:42:17.074Z,16.27
2019-04-03T04:46:22.515Z,15.17
2019-04-03T04:50:27.830Z,15.70
2019-04-03T04:54:33.109Z,16.27
2019-04-03T04:58:38.434Z,16.50
2019-04-03T05:02:44.799Z,17.10
2019-04-03T05:06:50.072Z,15.57
2019-04-03T05:10:55.337Z,16.23
2019-04-03T05:15:00.619Z,15.93
2019-04-03T05:19:10.250Z,15.57
2019-04-03T05:23:13.013Z,15.30
2019-04-03T05:27:18.495Z,15.73
2019-04-03T05:31:23.765Z,15.70
2019-04-03T05:35:29.127Z,15.33
2019-04-03T05:39:34.604Z,14.60
2019-04-03T05:43:39.911Z,16.77
2019-04-03T05:47:45.207Z,15.73
2019-04-03T05:51:50.493Z,15.83
2019-04-03T05:55:55.769Z,15.77
2019-04-03T06:00:02.409Z,15.50
2019-04-03T06:04:09.950Z,15.80
2019-04-03T06:08:15.090Z,16.53
2019-04-03T06:12:20.399Z,15.23
2019-04-03T06:16:25.653Z,14.70
2019-04-03T06:20:31.014Z,16.37
2019-04-03T06:24:36.311Z,14.63
2019-04-03T06:28:43.067Z,15.60
2019-04-03T06:32:50.426Z,15.07
2019-04-03T06:36:55.746Z,16.23
2019-04-03T06:41:01.058Z,15.70
2019-04-03T06:45:07.190Z,15.33
2019-04-03T06:49:12.478Z,16.80
2019-04-03T06:53:17.798Z,14.90
2019-04-03T06:57:23.086Z,16.00
2019-04-03T07:01:28.424Z,15.00
2019-04-03T07:05:33.730Z,15.53
2019-04-03T07:09:39.054Z,14.43
2019-04-03T07:13:44.322Z,14.47
2019-04-03T07:17:49.605Z,15.40
2019-04-03T07:21:55.849Z,14.87
2019-04-03T07:26:01.360Z,13.90
2019-04-03T07:30:08.602Z,13.87
2019-04-03T07:34:14.137Z,14.43
2019-04-03T07:38:19.771Z,13.67
2019-04-03T07:42:26.666Z,13.13
2019-04-03T07:46:33.257Z,13.73
2019-04-03T07:50:39.766Z,14.17
2019-04-03T07:54:45.884Z,12.87
2019-04-03T07:58:51.133Z,13.60
2019-04-03T08:02:56.904Z,14.30
2019-04-03T08:07:02.485Z,13.13
2019-04-03T08:11:07.821Z,13.47
2019-04-03T08:15:13.987Z,13.03
2019-04-03T08:19:20.916Z,12.93
2019-04-03T08:23:26.235Z,12.97
2019-04-03T08:27:31.518Z,13.00
2019-04-03T08:31:37.778Z,12.30
2019-04-03T08:35:43.297Z,12.87
2019-04-03T08:39:50.896Z,12.23
2019-04-03T08:43:56.463Z,12.10
2019-04-03T08:48:02.335Z,12.87
2019-04-03T08:52:07.713Z,12.97
2019-04-03T08:56:13.014Z,12.00
2019-04-03T09:00:19.928Z,11.77
2019-04-03T09:04:25.427Z,12.10
2019-04-03T09:08:30.935Z,12.03
2019-04-03T09:12:38.123Z,11.47
2019-04-03T09:16:43.391Z,12.07
2019-04-03T09:20:48.646Z,12.07
2019-04-03T09:24:54.269Z,12.80
2019-04-03T09:28:59.550Z,13.10
2019-04-03T09:33:04.830Z,12.97
2019-04-03T09:37:10.197Z,13.67
2019-04-03T09:41:17.124Z,13.40
2019-04-03T09:45:22.686Z,12.83
2019-04-03T09:49:27.994Z,14.03
2019-04-03T09:53:33.260Z,14.17
2019-04-03T09:57:38.554Z,13.77
2019-04-03T10:01:43.923Z,14.40
2019-04-03T10:05:49.535Z,14.07
2019-04-03T10:09:54.973Z,14.53
2019-04-03T10:14:00.473Z,15.37
2019-04-03T10:18:06.931Z,14.70
2019-04-03T10:22:12.931Z,14.73
2019-04-03T10:26:18.597Z,14.83
2019-04-03T10:30:24.113Z,15.47
2019-04-03T10:34:29.406Z,15.23
2019-04-03T10:38:34.892Z,15.43
2019-04-03T10:42:45.114Z,15.40
2019-04-03T10:46:50.785Z,15.97
2019-04-03T10:51:01.217Z,14.43
2019-04-03T10:55:07.565Z,14.87
2019-04-03T10:59:13.892Z,15.57
2019-04-03T11:03:19.759Z,15.03
2019-04-03T11:07:25.054Z,14.87
2019-04-03T11:11:30.625Z,14.27
2019-04-03T11:15:36.115Z,14.80
2019-04-03T11:19:44.094Z,14.20
2019-04-03T11:23:48.248Z,13.67
2019-04-03T11:27:53.951Z,12.93
2019-04-03T11:31:59.762Z,14.13
2019-04-03T11:36:05.442Z,15.00
2019-04-03T11:40:11.735Z,13.97
2019-04-03T11:44:17.045Z,14.53
2019-04-03T11:48:22.377Z,13.87
2019-04-03T11:52:27.738Z,14.47
2019-04-03T11:56:33.061Z,14.83
2019-04-03T12:00:40.024Z,15.17
2019-04-03T12:04:45.439Z,14.70
2019-04-03T12:08:50.793Z,14.67
2019-04-03T12:12:56.085Z,15.33
2019-04-03T12:17:02.428Z,14.90
2019-04-03T12:21:09.966Z,14.53
2019-04-03T12:25:15.187Z,14.87
2019-04-03T12:29:21.388Z,15.10
2019-04-03T12:33:27.850Z,14.27
2019-04-03T12:37:33.281Z,15.90
2019-04-03T12:41:38.582Z,15.50
2019-04-03T12:45:43.893Z,15.17
2019-04-03T12:49:49.178Z,14.47
2019-04-03T12:53:54.486Z,15.37
2019-04-03T12:57:59.781Z,15.20
2019-04-03T13:02:05.192Z,14.40
2019-04-03T13:06:10.957Z,16.30
2019-04-03T13:10:16.983Z,15.53
2019-04-03T13:14:26.249Z,15.77
2019-04-03T13:18:29.197Z,15.87
2019-04-03T13:22:35.513Z,15.60
2019-04-03T13:26:40.802Z,15.43
2019-04-03T13:30:46.213Z,14.93
2019-04-03T13:34:51.802Z,13.27
2019-04-03T13:39:00.318Z,15.47
2019-04-03T13:43:04.372Z,16.67
2019-04-03T13:47:09.848Z,15.07
2019-04-03T13:51:16.124Z,14.27
2019-04-03T13:55:21.855Z,13.43
2019-04-03T13:59:27.589Z,13.53
2019-04-03T14:03:33.066Z,14.87
2019-04-03T14:07:41.506Z,14.47
2019-04-03T14:11:45.840Z,12.77
2019-04-03T14:15:51.506Z,10.77
2019-04-03T14:19:57.208Z,9.83
2019-04-03T14:24:02.590Z,8.60
2019-04-03T14:28:08.173Z,9.53
2019-04-03T14:32:14.270Z,9.70
2019-04-03T14:36:20.391Z,9.57
2019-04-03T14:40:25.888Z,11.17
2019-04-03T14:44:31.105Z,10.20
2019-04-03T14:48:36.392Z,9.83
2019-04-03T14:52:42.008Z,9.80
2019-04-03T14:56:47.396Z,11.93
2019-04-03T15:00:53.294Z,11.33
2019-04-03T15:04:59.038Z,10.27
2019-04-03T15:09:06.400Z,12.20
2019-04-03T15:13:13.675Z,11.97
2019-04-03T15:17:19.241Z,9.47
2019-04-03T15:21:25.289Z,8.93
2019-04-03T15:25:30.701Z,6.47
2019-04-03T15:29:38.209Z,7.63
2019-04-03T15:33:42.882Z,7.33
2019-04-03T15:37:48.154Z,8.00
2019-04-03T15:41:53.473Z,8.73
2019-04-03T15:45:58.733Z,9.20
2019-04-03T15:50:06.262Z,9.63
2019-04-03T15:54:11.554Z,10.00
2019-04-03T15:58:16.843Z,10.90
2019-04-03T16:02:22.638Z,11.30
2019-04-03T16:06:28.292Z,12.57
2019-04-03T16:10:35.170Z,11.37
2019-04-03T16:14:40.907Z,12.10
2019-04-03T16:18:46.698Z,12.73
2019-04-03T16:22:52.032Z,12.17
2019-04-03T16:26:57.660Z,12.83
2019-04-03T16:31:03.700Z,12.53
2019-04-03T16:35:12.602Z,12.13
2019-04-03T16:39:17.473Z,12.13
2019-04-03T16:43:23.907Z,13.57
2019-04-03T16:47:29.386Z,13.53
2019-04-03T16:51:34.661Z,11.97
2019-04-03T16:55:39.946Z,14.43
2019-04-03T16:59:45.265Z,12.80
2019-04-03T17:03:50.648Z,12.57
2019-04-03T17:07:56.055Z,13.57
2019-04-03T17:12:01.403Z,13.83
2019-04-03T17:16:07.750Z,13.27
2019-04-03T17:20:13.247Z,13.43
2019-04-03T17:24:18.808Z,13.60
2019-04-03T17:28:26.277Z,12.40
2019-04-03T17:32:31.730Z,12.87
2019-04-03T17:36:37.958Z,14.50
2019-04-03T17:40:44.951Z,14.33
2019-04-03T17:44:51.282Z,13.87
2019-04-03T17:48:56.657Z,13.43
2019-04-03T17:53:02.120Z,15.33
2019-04-03T17:57:08.734Z,13.87
2019-04-03T18:01:14.090Z,14.00
2019-04-03T18:05:19.649Z,14.00
2019-04-03T18:09:26.079Z,15.03
2019-04-03T18:13:32.259Z,13.30
2019-04-03T18:17:40.275Z,12.17
2019-04-03T18:21:48.929Z,12.50
2019-04-03T18:25:55.241Z,13.87
2019-04-03T18:30:00.817Z,14.37
2019-04-03T18:34:07.906Z,13.83
2019-04-03T18:38:14.131Z,13.73
2019-04-03T18:42:19.499Z,13.47
2019-04-03T18:46:32.021Z,15.27
2019-04-03T18:50:34.957Z,13.67
2019-04-03T18:54:38.610Z,14.67
2019-04-03T18:58:44.195Z,13.53
2019-04-03T19:02:49.549Z,14.47
2019-04-03T19:06:54.917Z,15.13
2019-04-03T19:11:02.211Z,13.77
2019-04-03T19:15:07.883Z,15.23
2019-04-03T19:19:16.385Z,14.40
2019-04-03T19:23:21.167Z,11.60
2019-04-03T19:27:26.514Z,14.20
2019-04-03T19:31:31.854Z,16.70
2019-04-03T19:35:37.122Z,13.10
2019-04-03T19:39:42.413Z,13.87
2019-04-03T19:43:54.253Z,13.98
2019-04-03T19:47:59.531Z,13.83
2019-04-03T19:52:06.035Z,14.33
2019-04-03T19:56:11.832Z,15.27
2019-04-03T20:00:17.346Z,14.47
2019-04-03T20:04:22.686Z,14.87
2019-04-03T20:08:30.028Z,13.20
2019-04-03T20:12:35.785Z,14.23
2019-04-03T20:16:42.044Z,13.33
2019-04-03T20:20:47.337Z,14.60
2019-04-03T20:24:59.874Z,12.00
2019-04-03T20:29:02.104Z,13.97
2019-04-03T20:33:07.649Z,8.67
2019-04-03T20:37:12.938Z,14.27
2019-04-03T20:41:18.281Z,13.33
2019-04-03T20:45:23.638Z,14.63
2019-04-03T20:49:28.922Z,13.80
2019-04-03T20:53:34.233Z,15.77
2019-04-03T20:57:39.558Z,13.70
2019-04-03T21:01:44.863Z,14.70
2019-04-03T21:05:50.148Z,13.77
2019-04-03T21:09:55.433Z,14.23
2019-04-03T21:14:00.860Z,12.50
2019-04-03T21:18:06.126Z,12.50
2019-04-03T21:22:11.414Z,13.50
2019-04-03T21:26:16.705Z,13.70
2019-04-03T21:30:23.928Z,13.10
2019-04-03T21:34:28.913Z,13.47
2019-04-03T21:38:34.178Z,14.07
2019-04-03T21:42:39.470Z,14.17
2019-04-03T21:46:44.774Z,13.80
2019-04-03T21:50:50.432Z,13.40
2019-04-03T21:54:58.426Z,12.67
2019-04-03T21:59:02.697Z,12.13
2019-04-03T22:03:08.022Z,13.73
2019-04-03T22:07:13.314Z,12.77
2019-04-03T22:11:18.764Z,13.03
2019-04-03T22:15:24.058Z,13.00
2019-04-03T22:19:29.341Z,13.37
2019-04-03T22:23:36.354Z,12.67
2019-04-03T22:27:42.749Z,15.70
2019-04-03T22:31:48.669Z,12.70
2019-04-03T22:35:53.955Z,16.00
2019-04-03T22:39:59.250Z,14.80
2019-04-03T22:44:04.697Z,15.47
2019-04-03T22:48:09.996Z,14.40
2019-04-03T22:52:15.383Z,13.63
2019-04-03T22:56:20.672Z,13.90
2019-04-03T23:00:26.329Z,13.77
2019-04-03T23:04:31.592Z,14.47
2019-04-03T23:08:36.966Z,13.93
2019-04-03T23:12:42.269Z,13.20
2019-04-03T23:16:47.677Z,13.87
2019-04-03T23:20:53.345Z,13.30
2019-04-03T23:24:59.481Z,14.17
2019-04-03T23:29:05.831Z,13.20
2019-04-03T23:33:11.301Z,13.57
2019-04-03T23:37:16.654Z,12.40
2019-04-03T23:41:21.966Z,13.47
2019-04-03T23:45:28.886Z,12.93
2019-04-03T23:49:34.160Z,12.83
2019-04-03T23:53:39.453Z,13.23
2019-04-03T23:57:44.753Z,12.27
